createdAt,value
2023-04-17T00:00:25.081Z,96517.00
2023-04-17T00:04:33.579Z,96522.00
2023-04-17T00:08:44.652Z,96517.00
2023-04-17T00:12:47.676Z,96516.00
2023-04-17T00:16:50.853Z,96521.00
2023-04-17T00:20:58.348Z,96523.00
2023-04-17T00:25:01.472Z,96519.00
2023-04-17T00:29:04.931Z,96518.00
2023-04-17T00:33:08.148Z,96516.00
2023-04-17T00:37:13.673Z,96515.00
2023-04-17T00:41:22.728Z,96516.00
2023-04-17T00:45:26.112Z,96513.00
2023-04-17T00:49:30.160Z,96517.00
2023-04-17T00:53:38.015Z,96516.00
2023-04-17T00:57:41.952Z,96511.00
2023-04-17T01:01:49.771Z,96509.00
2023-04-17T01:05:55.487Z,96521.00
2023-04-17T01:10:02.415Z,96516.00
2023-04-17T01:14:05.401Z,96511.00
2023-04-17T01:18:08.636Z,96512.00
2023-04-17T01:22:11.691Z,96504.00
2023-04-17T01:26:19.550Z,96506.00
2023-04-17T01:30:22.703Z,96518.00
2023-04-17T01:34:28.204Z,96522.00
2023-04-17T01:38:33.964Z,96516.00
2023-04-17T01:42:40.148Z,96516.00
2023-04-17T01:46:43.376Z,96521.00
2023-04-17T01:50:46.581Z,96521.00
2023-04-17T01:54:52.560Z,96527.00
2023-04-17T01:58:59.373Z,96520.00
2023-04-17T02:03:06.396Z,96514.00
2023-04-17T02:07:09.769Z,96509.00
2023-04-17T02:11:14.068Z,96513.00
2023-04-17T02:15:18.662Z,96517.00
2023-04-17T02:19:22.924Z,96517.00
2023-04-17T02:23:31.053Z,96511.00
2023-04-17T02:27:37.089Z,96520.00
2023-04-17T02:31:42.560Z,96514.00
2023-04-17T02:35:56.294Z,96523.00
2023-04-17T02:40:01.660Z,96517.00
2023-04-17T02:44:05.075Z,96520.00
2023-04-17T02:48:09.866Z,96512.00
2023-04-17T02:52:15.669Z,96521.00
2023-04-17T02:56:23.410Z,96524.00
2023-04-17T03:00:28.096Z,96517.00
2023-04-17T03:04:36.886Z,96516.00
2023-04-17T03:08:40.175Z,96520.00
2023-04-17T03:12:43.179Z,96525.00
2023-04-17T03:16:46.252Z,96532.00
2023-04-17T03:20:54.254Z,96523.00
2023-04-17T03:24:57.267Z,96519.00
2023-04-17T03:29:12.764Z,96526.00
2023-04-17T03:33:16.360Z,96533.00
2023-04-17T03:37:23.534Z,96528.00
2023-04-17T03:41:26.597Z,96532.00
2023-04-17T03:45:29.917Z,96528.00
2023-04-17T03:49:32.963Z,96532.00
2023-04-17T03:53:40.644Z,96533.00
2023-04-17T03:57:48.558Z,96534.00
2023-04-17T04:01:55.098Z,96542.00
2023-04-17T04:05:58.179Z,96543.00
2023-04-17T04:10:13.678Z,96549.00
2023-04-17T04:14:16.876Z,96549.00
2023-04-17T04:18:20.124Z,96547.00
2023-04-17T04:22:25.933Z,96553.00
2023-04-17T04:26:31.663Z,96553.00
2023-04-17T04:30:42.829Z,96559.00
2023-04-17T04:34:46.247Z,96560.00
2023-04-17T04:38:50.677Z,96565.00
2023-04-17T04:43:02.149Z,96566.00
2023-04-17T04:47:05.847Z,96560.00
2023-04-17T04:51:11.125Z,96563.00
2023-04-17T04:55:15.790Z,96568.00
2023-04-17T04:59:20.196Z,96568.00
2023-04-17T05:03:25.672Z,96571.00
2023-04-17T05:07:28.790Z,96567.00
2023-04-17T05:11:33.877Z,96578.00
2023-04-17T05:15:38.734Z,96572.00
2023-04-17T05:19:41.875Z,96577.00
2023-04-17T05:23:44.910Z,96583.00
2023-04-17T05:27:50.415Z,96578.00
2023-04-17T05:32:00.652Z,96582.00
2023-04-17T05:36:03.802Z,96587.00
2023-04-17T05:40:10.567Z,96590.00
2023-04-17T05:44:13.583Z,96594.00
2023-04-17T05:48:18.050Z,96597.00
2023-04-17T05:52:23.501Z,96602.00
2023-04-17T05:56:27.112Z,96596.00
2023-04-17T06:00:31.220Z,96597.00
2023-04-17T06:04:37.638Z,96605.00
2023-04-17T06:08:43.676Z,96605.00
2023-04-17T06:12:47.336Z,96603.00
2023-04-17T06:16:50.458Z,96600.00
2023-04-17T06:20:54.937Z,96597.00
2023-04-17T06:24:57.980Z,96605.00
2023-04-17T06:29:04.239Z,96604.00
2023-04-17T06:33:07.289Z,96605.00
2023-04-17T06:37:13.748Z,96607.00
2023-04-17T06:41:18.275Z,96618.00
2023-04-17T06:45:21.399Z,96613.00
2023-04-17T06:49:24.407Z,96617.00
2023-04-17T06:53:28.906Z,96607.00
2023-04-17T06:57:34.068Z,96609.00
2023-04-17T07:01:41.451Z,96611.00
2023-04-17T07:05:48.464Z,96607.00
2023-04-17T07:09:52.879Z,96616.00
2023-04-17T07:13:58.349Z,96621.00
2023-04-17T07:18:04.616Z,96622.00
2023-04-17T07:22:08.071Z,96627.00
2023-04-17T07:26:13.925Z,96631.00
2023-04-17T07:30:18.796Z,96625.00
2023-04-17T07:34:22.960Z,96639.00
2023-04-17T07:38:29.187Z,96651.00
2023-04-17T07:42:33.851Z,96654.00
2023-04-17T07:46:40.176Z,96659.00
2023-04-17T07:50:59.412Z,96662.00
2023-04-17T07:55:02.426Z,96660.00
2023-04-17T07:59:07.090Z,96671.00
2023-04-17T08:03:10.306Z,96669.00
2023-04-17T08:07:14.568Z,96676.00
2023-04-17T08:11:19.848Z,96673.00
2023-04-17T08:15:24.478Z,96670.00
2023-04-17T08:19:27.766Z,96675.00
2023-04-17T08:23:30.977Z,96671.00
2023-04-17T08:27:34.367Z,96682.00
2023-04-17T08:31:40.458Z,96690.00
2023-04-17T08:35:43.520Z,96688.00
2023-04-17T08:39:52.502Z,96687.00
2023-04-17T08:43:56.821Z,96692.00
2023-04-17T08:48:05.697Z,96690.00
2023-04-17T08:52:09.831Z,96690.00
2023-04-17T08:56:22.516Z,96685.00
2023-04-17T09:00:27.223Z,96686.00
2023-04-17T09:04:39.491Z,96682.00
2023-04-17T09:08:56.956Z,96686.00
2023-04-17T09:13:03.848Z,96689.00
2023-04-17T09:17:07.035Z,96695.00
2023-04-17T09:21:11.761Z,96684.00
2023-04-17T09:25:18.728Z,96677.00
2023-04-17T09:29:24.336Z,96673.00
2023-04-17T09:33:27.465Z,96678.00
2023-04-17T09:37:59.444Z,96677.00
2023-04-17T09:42:04.333Z,96677.00
2023-04-17T09:46:10.058Z,96681.00
2023-04-17T09:50:13.540Z,96672.00
2023-04-17T09:54:20.397Z,96679.00
2023-04-17T09:58:23.626Z,96680.00
2023-04-17T10:02:30.066Z,96685.00
2023-04-17T10:06:33.893Z,96677.00
2023-04-17T10:10:38.361Z,96682.00
2023-04-17T10:14:44.295Z,96682.00
2023-04-17T10:18:47.323Z,96673.00
2023-04-17T10:22:54.576Z,96665.00
2023-04-17T10:27:01.370Z,96671.00
2023-04-17T10:31:06.336Z,96671.00
2023-04-17T10:35:38.211Z,96667.00
2023-04-17T10:39:56.888Z,96665.00
2023-04-17T10:44:04.401Z,96654.00
2023-04-17T10:48:09.884Z,96653.00
2023-04-17T10:52:41.649Z,96654.00
2023-04-17T10:56:49.311Z,96659.00
2023-04-17T11:00:53.948Z,96654.00
2023-04-17T11:05:08.630Z,96653.00
2023-04-17T11:09:13.380Z,96656.00
2023-04-17T11:13:16.877Z,96657.00
2023-04-17T11:17:26.429Z,96651.00
2023-04-17T11:21:29.616Z,96656.00
2023-04-17T11:25:34.612Z,96644.00
2023-04-17T11:29:38.100Z,96649.00
2023-04-17T11:33:42.646Z,96646.00
2023-04-17T11:38:21.737Z,96654.00
2023-04-17T11:42:28.309Z,96646.00
2023-04-17T11:46:31.652Z,96640.00
2023-04-17T11:50:37.612Z,96658.00
2023-04-17T11:54:43.749Z,96659.00
2023-04-17T11:58:48.217Z,96651.00
2023-04-17T12:02:52.035Z,96649.00
2023-04-17T12:06:59.863Z,96654.00
2023-04-17T12:11:03.000Z,96668.00
2023-04-17T12:15:07.165Z,96663.00
2023-04-17T12:19:16.784Z,96659.00
2023-04-17T12:23:22.466Z,96666.00
2023-04-17T12:27:29.104Z,96659.00
2023-04-17T12:31:34.886Z,96653.00
2023-04-17T12:35:42.571Z,96659.00
2023-04-17T12:39:52.348Z,96667.00
2023-04-17T12:43:55.544Z,96658.00
2023-04-17T12:47:58.898Z,96653.00
2023-04-17T12:52:03.634Z,96651.00
2023-04-17T12:56:10.446Z,96652.00
2023-04-17T13:00:14.482Z,96651.00
2023-04-17T13:04:19.935Z,96647.00
2023-04-17T13:08:25.453Z,96644.00
2023-04-17T13:12:31.770Z,96635.00
2023-04-17T13:16:34.804Z,96647.00
2023-04-17T13:20:41.941Z,96641.00
2023-04-17T13:24:46.769Z,96636.00
2023-04-17T13:28:51.175Z,96631.00
2023-04-17T13:32:56.914Z,96637.00
2023-04-17T13:37:00.040Z,96631.00
2023-04-17T13:41:03.104Z,96630.00
2023-04-17T13:45:12.431Z,96627.00
2023-04-17T13:49:24.732Z,96628.00
2023-04-17T13:53:27.794Z,96617.00
2023-04-17T13:57:39.198Z,96621.00
2023-04-17T14:01:43.648Z,96621.00
2023-04-17T14:05:49.529Z,96618.00
2023-04-17T14:09:52.542Z,96614.00
2023-04-17T14:14:01.719Z,96606.00
2023-04-17T14:18:10.337Z,96619.00
2023-04-17T14:22:17.288Z,96619.00
2023-04-17T14:26:22.218Z,96611.00
2023-04-17T14:30:27.594Z,96615.00
2023-04-17T14:34:35.665Z,96618.00
2023-04-17T14:38:40.406Z,96618.00
2023-04-17T14:42:54.023Z,96614.00
2023-04-17T14:47:04.800Z,96603.00
2023-04-17T14:51:15.322Z,96599.00
2023-04-17T14:55:18.331Z,96606.00
2023-04-17T14:59:22.943Z,96601.00
2023-04-17T15:03:30.512Z,96596.00
2023-04-17T15:07:35.127Z,96599.00
2023-04-17T15:11:38.432Z,96599.00
2023-04-17T15:15:41.455Z,96587.00
2023-04-17T15:19:44.804Z,96602.00
2023-04-17T15:23:49.669Z,96608.00
2023-04-17T15:27:54.177Z,96602.00
2023-04-17T15:31:57.340Z,96606.00
2023-04-17T15:36:01.275Z,96601.00
2023-04-17T15:40:08.950Z,96600.00
2023-04-17T15:44:17.183Z,96594.00
2023-04-17T15:48:22.967Z,96590.00
2023-04-17T15:52:31.765Z,96591.00
2023-04-17T15:56:36.157Z,96589.00
2023-04-17T16:00:41.620Z,96587.00
2023-04-17T16:04:47.662Z,96588.00
2023-04-17T16:08:50.785Z,96593.00
2023-04-17T16:12:55.179Z,96587.00
2023-04-17T16:17:01.266Z,96600.00
2023-04-17T16:21:05.032Z,96598.00
2023-04-17T16:25:08.836Z,96606.00
2023-04-17T16:29:17.545Z,96604.00
2023-04-17T16:33:22.688Z,96601.00
2023-04-17T16:37:28.189Z,96598.00
2023-04-17T16:41:31.268Z,96602.00
2023-04-17T16:45:40.390Z,96600.00
2023-04-17T16:49:43.876Z,96603.00
2023-04-17T16:53:50.967Z,96600.00
2023-04-17T16:57:54.634Z,96606.00
2023-04-17T17:02:00.165Z,96607.00
2023-04-17T17:06:07.109Z,96611.00
2023-04-17T17:10:11.508Z,96617.00
2023-04-17T17:14:16.189Z,96614.00
2023-04-17T17:18:20.635Z,96623.00
2023-04-17T17:22:23.673Z,96629.00
2023-04-17T17:26:30.436Z,96645.00
2023-04-17T17:30:34.689Z,96650.00
2023-04-17T17:34:39.126Z,96644.00
2023-04-17T17:38:42.350Z,96654.00
2023-04-17T17:42:46.000Z,96650.00
2023-04-17T17:46:50.364Z,96656.00
2023-04-17T17:50:58.468Z,96648.00
2023-04-17T17:55:03.554Z,96661.00
2023-04-17T17:59:07.824Z,96655.00
2023-04-17T18:03:11.143Z,96663.00
2023-04-17T18:07:17.888Z,96660.00
2023-04-17T18:11:21.289Z,96662.00
2023-04-17T18:15:27.024Z,96675.00
2023-04-17T18:19:32.186Z,96683.00
2023-04-17T18:23:36.777Z,96691.00
2023-04-17T18:27:40.056Z,96690.00
2023-04-17T18:31:47.097Z,96699.00
2023-04-17T18:35:50.328Z,96692.00
2023-04-17T18:39:54.739Z,96689.00
2023-04-17T18:43:58.164Z,96699.00
2023-04-17T18:48:01.363Z,96700.00
2023-04-17T18:52:09.150Z,96702.00
2023-04-17T18:56:16.516Z,96712.00
2023-04-17T19:00:20.133Z,96703.00
2023-04-17T19:04:26.316Z,96707.00
2023-04-17T19:08:29.455Z,96705.00
2023-04-17T19:12:45.042Z,96705.00
2023-04-17T19:16:50.552Z,96708.00
2023-04-17T19:20:53.707Z,96709.00
2023-04-17T19:24:56.740Z,96702.00
2023-04-17T19:29:05.376Z,96708.00
2023-04-17T19:33:13.424Z,96701.00
2023-04-17T19:37:19.103Z,96705.00
2023-04-17T19:41:22.342Z,96703.00
2023-04-17T19:45:28.127Z,96699.00
2023-04-17T19:49:32.368Z,96705.00
2023-04-17T19:53:36.600Z,96701.00
2023-04-17T19:57:39.610Z,96714.00
2023-04-17T20:01:44.576Z,96703.00
2023-04-17T20:05:47.736Z,96699.00
2023-04-17T20:09:54.890Z,96698.00
2023-04-17T20:13:57.945Z,96702.00
2023-04-17T20:18:04.141Z,96692.00
2023-04-17T20:22:10.686Z,96692.00
2023-04-17T20:26:14.205Z,96695.00
2023-04-17T20:30:20.256Z,96692.00
2023-04-17T20:34:25.972Z,96691.00
2023-04-17T20:38:29.272Z,96688.00
2023-04-17T20:42:34.358Z,96690.00
2023-04-17T20:46:37.801Z,96694.00
2023-04-17T20:50:45.156Z,96689.00
2023-04-17T20:54:49.154Z,96698.00
2023-04-17T20:58:56.689Z,96687.00
2023-04-17T21:03:02.616Z,96689.00
2023-04-17T21:07:07.888Z,96682.00
2023-04-17T21:11:11.014Z,96689.00
2023-04-17T21:15:17.333Z,96681.00
2023-04-17T21:19:20.653Z,96681.00
2023-04-17T21:23:25.063Z,96684.00
2023-04-17T21:27:33.143Z,96684.00
2023-04-17T21:31:36.276Z,96689.00
2023-04-17T21:35:41.183Z,96677.00
2023-04-17T21:39:45.575Z,96681.00
2023-04-17T21:43:48.782Z,96684.00
2023-04-17T21:47:51.884Z,96684.00
2023-04-17T21:51:55.098Z,96685.00
2023-04-17T21:55:59.474Z,96697.00
2023-04-17T22:00:06.270Z,96691.00
2023-04-17T22:04:09.323Z,96695.00
2023-04-17T22:08:13.494Z,96689.00
2023-04-17T22:12:20.796Z,96697.00
2023-04-17T22:16:24.217Z,96688.00
2023-04-17T22:20:27.538Z,96690.00
2023-04-17T22:24:36.482Z,96684.00
2023-04-17T22:28:43.485Z,96689.00
2023-04-17T22:32:47.751Z,96688.00
2023-04-17T22:36:51.010Z,96691.00
2023-04-17T22:40:54.090Z,96688.00
2023-04-17T22:44:58.708Z,96680.00
2023-04-17T22:49:09.921Z,96681.00
2023-04-17T22:53:12.987Z,96682.00
2023-04-17T22:57:16.067Z,96684.00
2023-04-17T23:01:20.887Z,96687.00
2023-04-17T23:05:24.546Z,96690.00
2023-04-17T23:09:27.618Z,96687.00
2023-04-17T23:13:31.776Z,96681.00
2023-04-17T23:17:36.237Z,96682.00
2023-04-17T23:21:39.347Z,96677.00
2023-04-17T23:25:46.522Z,96670.00
2023-04-17T23:29:49.827Z,96674.00
2023-04-17T23:33:54.466Z,96671.00
2023-04-17T23:37:57.478Z,96665.00
2023-04-17T23:42:06.973Z,96660.00
2023-04-17T23:46:13.051Z,96663.00
2023-04-17T23:50:21.999Z,96655.00
2023-04-17T23:54:28.063Z,96661.00
2023-04-17T23:58:31.145Z,96653.00
